Impacts METAR Board
IDs:

KATL - Atlanta/Hartsfield-J, GA, US

Updated at: 0900 UTC 19 Jul 2018
Potential Impact None Slight Moderate High
Time 18/21Z 18/22Z 18/23Z 19/00Z 19/01Z 19/02Z 19/03Z 19/04Z 19/05Z 19/06Z 19/07Z 19/08Z 19/09Z
Temp92 91 91 89 86 82 79 79 79 78 75 75 75
Dewpt69 70 69 65 69 70 68 69 68 69 70 70 70
Altim29.92 29.91 29.91 29.92 29.92 29.96 29.97 29.97 29.96 29.95 29.94 29.93 29.95
VIS10 10 10 10 10 10 10 10 10 10 10 10 10
CIG-- 250 250 250 250 40 250 250 250 250 250 -- --
CoverSCTBKNBKNBKNBKNBKNBKNBKNBKNBKNBKNSCTSCT
FltCatVFRVFRVFRVFRVFRVFRVFRVFRVFRVFRVFRVFRVFR
WX--------VCTSTS--------------
WDir03203303303502101101900000150
WSpd5 9 8 9 10 3 5 5 0 0 0 0 4
WGst-- -- -- -- -- -- -- -- -- -- -- -- --
Raw hourly METARs
KATL 182052Z VRB05KT 10SM FEW050TCU FEW150 SCT250 33/21 A2992 RMK AO2 SLP120 TCU SW-W MDT CU NW-N T03330206 58019
KATL 182152Z 32009KT 10SM FEW050 BKN250 33/21 A2991 RMK AO2 SLP115 TCU DSNT N T03280211
KATL 182252Z 33008KT 10SM FEW050 BKN250 33/21 A2991 RMK AO2 SLP116 MDT CU S T03280206
KATL 182352Z 33009KT 10SM FEW050TCU BKN250 32/18 A2992 RMK AO2 SLP121 TCU VC S T03170183 10339 20311 53000
KATL 190105Z 35010KT 10SM VCTS FEW045CB BKN250 30/21 A2992 RMK AO2 TSB04 OCNL LTGICCG SE-S TS VC SE-S MOV S T03000206
KATL 190152Z 21003KT 10SM TS BKN040CB BKN070 BKN250 28/21 A2996 RMK AO2 SLP134 TSB04 FRQ LTGICCG NE-SE TS NE-SE MOV S T02780211
KATL 190252Z 11005KT 10SM FEW035 SCT070 BKN250 26/20 A2997 RMK AO2 SLP139 TSE47 T02610200 53016
KATL 190352Z 19005KT 10SM SCT050 BKN250 26/21 A2997 RMK AO2 SLP136 T02610206
KATL 190452Z 00000KT 10SM FEW035 SCT200 BKN250 26/20 A2996 RMK AO2 SLP134 T02610200 403390233
KATL 190552Z 00000KT 10SM FEW100 SCT200 BKN250 26/21 A2995 RMK AO2 SLP130 T02560206 10317 20250 58008
KATL 190652Z 00000KT 10SM FEW055 SCT200 BKN250 24/21 A2994 RMK AO2 SLP126 T02390211
KATL 190752Z 00000KT 10SM FEW200 SCT250 24/21 A2993 RMK AO2 SLP124 T02390211
KATL 190852Z 15004KT 10SM FEW014 FEW150 SCT200 SCT250 24/21 A2995 RMK AO2 SLP128 T02390211 55001



Page loaded:  09:41 UTC  |   02:41 AM Pacific  |   03:41 AM Mountain  |   04:41 AM Central  |   05:41 AM Eastern

 

ADVISORIES

FORECASTS

FORECASTS

OBSERVATIONS

USER TOOLS

ABOUT US